sensor_id;sensor_type;location;lat;lon;timestamp;pressure;altitude;pressure_sealevel;temperature
74321;BMP280;62738;45.772;4.804;2023-04-25T00:00:13;99358.03;;;15.05
74321;BMP280;62738;45.772;4.804;2023-04-25T00:02:40;99353.78;;;15.50
74321;BMP280;62738;45.772;4.804;2023-04-25T00:05:08;99348.16;;;15.62
74321;BMP280;62738;45.772;4.804;2023-04-25T00:07:35;99355.84;;;15.15
74321;BMP280;62738;45.772;4.804;2023-04-25T00:10:02;99365.72;;;14.60
74321;BMP280;62738;45.772;4.804;2023-04-25T00:12:29;99351.13;;;14.50
74321;BMP280;62738;45.772;4.804;2023-04-25T00:14:56;99347.56;;;14.82
74321;BMP280;62738;45.772;4.804;2023-04-25T00:17:26;99338.47;;;14.93
74321;BMP280;62738;45.772;4.804;2023-04-25T00:19:53;99339.34;;;15.07
74321;BMP280;62738;45.772;4.804;2023-04-25T00:22:20;99343.44;;;14.83
74321;BMP280;62738;45.772;4.804;2023-04-25T00:24:46;99354.06;;;14.63
74321;BMP280;62738;45.772;4.804;2023-04-25T00:27:13;99351.94;;;14.40
74321;BMP280;62738;45.772;4.804;2023-04-25T00:29:40;99343.53;;;14.29
74321;BMP280;62738;45.772;4.804;2023-04-25T00:32:06;99348.59;;;14.54
74321;BMP280;62738;45.772;4.804;2023-04-25T00:34:33;99358.16;;;14.18
74321;BMP280;62738;45.772;4.804;2023-04-25T00:37:00;99340.28;;;14.44
74321;BMP280;62738;45.772;4.804;2023-04-25T00:39:28;99363.22;;;14.42
74321;BMP280;62738;45.772;4.804;2023-04-25T00:41:55;99364.78;;;14.13
74321;BMP280;62738;45.772;4.804;2023-04-25T00:44:22;99369.34;;;14.08
74321;BMP280;62738;45.772;4.804;2023-04-25T00:46:48;99361.81;;;13.99
74321;BMP280;62738;45.772;4.804;2023-04-25T00:49:16;99363.59;;;13.73
74321;BMP280;62738;45.772;4.804;2023-04-25T00:51:43;99356.47;;;13.60
74321;BMP280;62738;45.772;4.804;2023-04-25T00:54:12;99366.84;;;13.70
74321;BMP280;62738;45.772;4.804;2023-04-25T00:56:40;99357.28;;;13.73
74321;BMP280;62738;45.772;4.804;2023-04-25T00:59:06;99357.09;;;13.80
74321;BMP280;62738;45.772;4.804;2023-04-25T01:04:15;99355.69;;;13.91
74321;BMP280;62738;45.772;4.804;2023-04-25T01:06:42;99364.06;;;13.91
74321;BMP280;62738;45.772;4.804;2023-04-25T01:09:09;99367.88;;;13.95
74321;BMP280;62738;45.772;4.804;2023-04-25T01:11:36;99364.25;;;14.04
74321;BMP280;62738;45.772;4.804;2023-04-25T01:14:03;99369.72;;;14.24
74321;BMP280;62738;45.772;4.804;2023-04-25T01:16:29;99371.50;;;14.19
74321;BMP280;62738;45.772;4.804;2023-04-25T01:18:56;99366.41;;;13.94
74321;BMP280;62738;45.772;4.804;2023-04-25T01:21:23;99363.72;;;13.96
74321;BMP280;62738;45.772;4.804;2023-04-25T01:23:53;99357.09;;;14.23
74321;BMP280;62738;45.772;4.804;2023-04-25T01:26:21;99357.41;;;14.17
74321;BMP280;62738;45.772;4.804;2023-04-25T01:28:48;99354.78;;;14.19
74321;BMP280;62738;45.772;4.804;2023-04-25T01:31:15;99365.38;;;14.32
74321;BMP280;62738;45.772;4.804;2023-04-25T01:33:42;99362.69;;;14.56
74321;BMP280;62738;45.772;4.804;2023-04-25T01:36:09;99369.19;;;14.49
74321;BMP280;62738;45.772;4.804;2023-04-25T01:38:35;99366.66;;;14.53
74321;BMP280;62738;45.772;4.804;2023-04-25T01:41:02;99366.94;;;14.35
74321;BMP280;62738;45.772;4.804;2023-04-25T01:43:29;99362.69;;;14.67
74321;BMP280;62738;45.772;4.804;2023-04-25T01:45:56;99355.59;;;14.99
74321;BMP280;62738;45.772;4.804;2023-04-25T01:48:23;99350.91;;;14.69
74321;BMP280;62738;45.772;4.804;2023-04-25T01:50:50;99353.88;;;14.82
74321;BMP280;62738;45.772;4.804;2023-04-25T01:53:17;99348.31;;;14.94
74321;BMP280;62738;45.772;4.804;2023-04-25T01:55:43;99350.38;;;14.94
74321;BMP280;62738;45.772;4.804;2023-04-25T01:58:10;99351.19;;;14.73
74321;BMP280;62738;45.772;4.804;2023-04-25T02:00:39;99351.97;;;14.19
74321;BMP280;62738;45.772;4.804;2023-04-25T02:03:07;99354.78;;;13.98
74321;BMP280;62738;45.772;4.804;2023-04-25T02:05:36;99352.78;;;13.89
74321;BMP280;62738;45.772;4.804;2023-04-25T02:08:05;99344.13;;;14.06
74321;BMP280;62738;45.772;4.804;2023-04-25T02:10:32;99345.41;;;14.48
74321;BMP280;62738;45.772;4.804;2023-04-25T02:12:59;99350.06;;;14.55
74321;BMP280;62738;45.772;4.804;2023-04-25T02:15:25;99345.94;;;14.67
74321;BMP280;62738;45.772;4.804;2023-04-25T02:17:52;99350.41;;;14.49
74321;BMP280;62738;45.772;4.804;2023-04-25T02:20:21;99350.16;;;14.57
74321;BMP280;62738;45.772;4.804;2023-04-25T02:22:48;99345.22;;;14.67
74321;BMP280;62738;45.772;4.804;2023-04-25T02:25:15;99350.97;;;15.04
74321;BMP280;62738;45.772;4.804;2023-04-25T02:27:42;99344.81;;;15.17
74321;BMP280;62738;45.772;4.804;2023-04-25T02:30:09;99339.69;;;15.48
74321;BMP280;62738;45.772;4.804;2023-04-25T02:32:36;99350.41;;;15.17
74321;BMP280;62738;45.772;4.804;2023-04-25T02:35:03;99347.72;;;15.30
74321;BMP280;62738;45.772;4.804;2023-04-25T02:37:31;99351.50;;;15.23
74321;BMP280;62738;45.772;4.804;2023-04-25T02:39:58;99349.06;;;15.18
74321;BMP280;62738;45.772;4.804;2023-04-25T02:42:26;99349.81;;;15.18
74321;BMP280;62738;45.772;4.804;2023-04-25T02:44:53;99350.25;;;15.15
74321;BMP280;62738;45.772;4.804;2023-04-25T02:47:20;99349.28;;;14.87
74321;BMP280;62738;45.772;4.804;2023-04-25T02:49:47;99345.41;;;14.92
74321;BMP280;62738;45.772;4.804;2023-04-25T02:52:13;99356.44;;;14.78
74321;BMP280;62738;45.772;4.804;2023-04-25T02:54:40;99340.31;;;15.12
74321;BMP280;62738;45.772;4.804;2023-04-25T02:57:07;99345.53;;;15.41
74321;BMP280;62738;45.772;4.804;2023-04-25T02:59:34;99339.09;;;15.15
74321;BMP280;62738;45.772;4.804;2023-04-25T03:02:01;99348.56;;;15.21
74321;BMP280;62738;45.772;4.804;2023-04-25T03:04:28;99342.84;;;15.31
74321;BMP280;62738;45.772;4.804;2023-04-25T03:06:54;99348.53;;;14.98
74321;BMP280;62738;45.772;4.804;2023-04-25T03:09:21;99346.84;;;15.05
74321;BMP280;62738;45.772;4.804;2023-04-25T03:11:48;99342.50;;;14.90
74321;BMP280;62738;45.772;4.804;2023-04-25T03:14:14;99360.75;;;14.70
74321;BMP280;62738;45.772;4.804;2023-04-25T03:16:41;99348.44;;;14.96
74321;BMP280;62738;45.772;4.804;2023-04-25T03:19:08;99347.22;;;14.99
74321;BMP280;62738;45.772;4.804;2023-04-25T03:21:35;99353.66;;;14.45
74321;BMP280;62738;45.772;4.804;2023-04-25T03:24:03;99358.47;;;14.12
74321;BMP280;62738;45.772;4.804;2023-04-25T03:26:30;99345.81;;;13.99
74321;BMP280;62738;45.772;4.804;2023-04-25T03:28:57;99345.47;;;14.05
74321;BMP280;62738;45.772;4.804;2023-04-25T03:31:23;99352.13;;;14.00
74321;BMP280;62738;45.772;4.804;2023-04-25T03:33:50;99348.38;;;13.65
74321;BMP280;62738;45.772;4.804;2023-04-25T03:36:17;99355.75;;;13.81
74321;BMP280;62738;45.772;4.804;2023-04-25T03:38:43;99368.81;;;13.79
74321;BMP280;62738;45.772;4.804;2023-04-25T03:41:10;99374.22;;;13.25
74321;BMP280;62738;45.772;4.804;2023-04-25T03:43:37;99376.13;;;13.22
74321;BMP280;62738;45.772;4.804;2023-04-25T03:46:04;99358.63;;;12.91
74321;BMP280;62738;45.772;4.804;2023-04-25T03:48:30;99361.56;;;12.93
74321;BMP280;62738;45.772;4.804;2023-04-25T03:50:57;99358.06;;;12.92
74321;BMP280;62738;45.772;4.804;2023-04-25T03:53:24;99368.22;;;12.49
74321;BMP280;62738;45.772;4.804;2023-04-25T03:55:51;99363.63;;;12.83
74321;BMP280;62738;45.772;4.804;2023-04-25T03:58:17;99368.31;;;13.40
74321;BMP280;62738;45.772;4.804;2023-04-25T04:00:44;99368.09;;;13.78
74321;BMP280;62738;45.772;4.804;2023-04-25T04:03:11;99372.81;;;13.76
74321;BMP280;62738;45.772;4.804;2023-04-25T04:05:38;99365.13;;;13.86
74321;BMP280;62738;45.772;4.804;2023-04-25T04:08:06;99363.34;;;13.69
74321;BMP280;62738;45.772;4.804;2023-04-25T04:10:33;99365.38;;;13.90
74321;BMP280;62738;45.772;4.804;2023-04-25T04:13:01;99370.56;;;14.05
74321;BMP280;62738;45.772;4.804;2023-04-25T04:15:27;99381.28;;;13.78
74321;BMP280;62738;45.772;4.804;2023-04-25T04:17:54;99375.09;;;13.89
74321;BMP280;62738;45.772;4.804;2023-04-25T04:20:21;99371.03;;;14.23
74321;BMP280;62738;45.772;4.804;2023-04-25T04:22:47;99374.84;;;14.60
74321;BMP280;62738;45.772;4.804;2023-04-25T04:25:14;99379.69;;;14.38
74321;BMP280;62738;45.772;4.804;2023-04-25T04:27:41;99379.31;;;14.32
74321;BMP280;62738;45.772;4.804;2023-04-25T04:30:08;99380.69;;;13.89
74321;BMP280;62738;45.772;4.804;2023-04-25T04:32:34;99386.56;;;13.52
74321;BMP280;62738;45.772;4.804;2023-04-25T04:35:04;99388.19;;;13.46
74321;BMP280;62738;45.772;4.804;2023-04-25T04:37:32;99389.34;;;13.52
74321;BMP280;62738;45.772;4.804;2023-04-25T04:39:59;99381.00;;;13.52
74321;BMP280;62738;45.772;4.804;2023-04-25T04:42:31;99404.56;;;13.21
74321;BMP280;62738;45.772;4.804;2023-04-25T04:44:58;99395.31;;;13.37
74321;BMP280;62738;45.772;4.804;2023-04-25T04:47:25;99402.75;;;13.44
74321;BMP280;62738;45.772;4.804;2023-04-25T04:49:52;99403.53;;;13.35
74321;BMP280;62738;45.772;4.804;2023-04-25T04:52:18;99405.56;;;13.35
74321;BMP280;62738;45.772;4.804;2023-04-25T04:54:45;99405.91;;;13.60
74321;BMP280;62738;45.772;4.804;2023-04-25T04:57:12;99403.16;;;13.50
74321;BMP280;62738;45.772;4.804;2023-04-25T04:59:38;99395.38;;;13.49
74321;BMP280;62738;45.772;4.804;2023-04-25T05:02:05;99401.75;;;13.40
74321;BMP280;62738;45.772;4.804;2023-04-25T05:04:33;99404.41;;;13.38
74321;BMP280;62738;45.772;4.804;2023-04-25T05:07:00;99405.50;;;13.54
74321;BMP280;62738;45.772;4.804;2023-04-25T05:09:27;99420.56;;;13.60
74321;BMP280;62738;45.772;4.804;2023-04-25T05:11:53;99409.88;;;13.88
74321;BMP280;62738;45.772;4.804;2023-04-25T05:14:20;99422.91;;;14.16
74321;BMP280;62738;45.772;4.804;2023-04-25T05:16:48;99425.03;;;14.06
74321;BMP280;62738;45.772;4.804;2023-04-25T05:19:14;99421.91;;;14.12
74321;BMP280;62738;45.772;4.804;2023-04-25T05:21:41;99427.28;;;13.98
74321;BMP280;62738;45.772;4.804;2023-04-25T05:24:09;99419.56;;;14.08
74321;BMP280;62738;45.772;4.804;2023-04-25T05:26:37;99418.13;;;14.07
74321;BMP280;62738;45.772;4.804;2023-04-25T05:29:03;99428.28;;;14.02
74321;BMP280;62738;45.772;4.804;2023-04-25T05:31:31;99422.25;;;14.27
74321;BMP280;62738;45.772;4.804;2023-04-25T05:33:58;99431.81;;;14.24
74321;BMP280;62738;45.772;4.804;2023-04-25T05:36:24;99431.00;;;14.12
74321;BMP280;62738;45.772;4.804;2023-04-25T05:38:52;99443.03;;;13.63
74321;BMP280;62738;45.772;4.804;2023-04-25T05:41:19;99443.28;;;13.67
74321;BMP280;62738;45.772;4.804;2023-04-25T05:43:46;99440.09;;;13.60
74321;BMP280;62738;45.772;4.804;2023-04-25T05:46:13;99455.34;;;13.59
74321;BMP280;62738;45.772;4.804;2023-04-25T05:48:40;99446.63;;;13.75
74321;BMP280;62738;45.772;4.804;2023-04-25T05:51:07;99450.13;;;13.75
74321;BMP280;62738;45.772;4.804;2023-04-25T05:53:33;99456.81;;;13.60
74321;BMP280;62738;45.772;4.804;2023-04-25T05:56:01;99461.81;;;13.52
74321;BMP280;62738;45.772;4.804;2023-04-25T05:58:27;99452.53;;;13.69
74321;BMP280;62738;45.772;4.804;2023-04-25T06:00:55;99451.81;;;13.69
74321;BMP280;62738;45.772;4.804;2023-04-25T06:03:21;99458.78;;;13.79
74321;BMP280;62738;45.772;4.804;2023-04-25T06:05:49;99448.06;;;14.07
74321;BMP280;62738;45.772;4.804;2023-04-25T06:08:16;99448.41;;;14.22
74321;BMP280;62738;45.772;4.804;2023-04-25T06:10:42;99441.78;;;14.27
74321;BMP280;62738;45.772;4.804;2023-04-25T06:13:09;99452.38;;;14.40
74321;BMP280;62738;45.772;4.804;2023-04-25T06:15:36;99445.63;;;14.43
74321;BMP280;62738;45.772;4.804;2023-04-25T06:18:03;99456.56;;;14.51
74321;BMP280;62738;45.772;4.804;2023-04-25T06:20:29;99454.72;;;14.44
74321;BMP280;62738;45.772;4.804;2023-04-25T06:22:56;99462.03;;;14.28
74321;BMP280;62738;45.772;4.804;2023-04-25T06:25:23;99451.38;;;14.15
74321;BMP280;62738;45.772;4.804;2023-04-25T06:27:50;99463.03;;;14.11
74321;BMP280;62738;45.772;4.804;2023-04-25T06:30:16;99462.91;;;14.30
74321;BMP280;62738;45.772;4.804;2023-04-25T06:32:48;99460.38;;;14.34
74321;BMP280;62738;45.772;4.804;2023-04-25T06:35:15;99464.81;;;14.07
74321;BMP280;62738;45.772;4.804;2023-04-25T06:37:42;99461.94;;;13.64
74321;BMP280;62738;45.772;4.804;2023-04-25T06:40:08;99469.06;;;13.77
74321;BMP280;62738;45.772;4.804;2023-04-25T06:42:35;99466.81;;;14.16
74321;BMP280;62738;45.772;4.804;2023-04-25T06:45:02;99474.66;;;13.77
74321;BMP280;62738;45.772;4.804;2023-04-25T06:47:29;99466.50;;;13.90
74321;BMP280;62738;45.772;4.804;2023-04-25T06:49:56;99473.44;;;13.80
74321;BMP280;62738;45.772;4.804;2023-04-25T06:52:23;99466.06;;;13.63
74321;BMP280;62738;45.772;4.804;2023-04-25T06:54:49;99469.34;;;13.81
74321;BMP280;62738;45.772;4.804;2023-04-25T06:57:16;99476.34;;;13.51
74321;BMP280;62738;45.772;4.804;2023-04-25T06:59:43;99466.94;;;13.56
74321;BMP280;62738;45.772;4.804;2023-04-25T07:02:10;99469.06;;;13.77
74321;BMP280;62738;45.772;4.804;2023-04-25T07:04:36;99462.13;;;14.09
74321;BMP280;62738;45.772;4.804;2023-04-25T07:07:04;99466.34;;;13.98
74321;BMP280;62738;45.772;4.804;2023-04-25T07:09:30;99484.69;;;14.01
74321;BMP280;62738;45.772;4.804;2023-04-25T07:12:00;99480.69;;;13.73
74321;BMP280;62738;45.772;4.804;2023-04-25T07:14:28;99472.72;;;13.39
74321;BMP280;62738;45.772;4.804;2023-04-25T07:16:54;99479.28;;;13.84
74321;BMP280;62738;45.772;4.804;2023-04-25T07:19:23;99474.31;;;13.51
74321;BMP280;62738;45.772;4.804;2023-04-25T07:21:53;99479.00;;;13.89
74321;BMP280;62738;45.772;4.804;2023-04-25T07:24:19;99482.09;;;13.84
74321;BMP280;62738;45.772;4.804;2023-04-25T07:26:46;99490.31;;;13.82
74321;BMP280;62738;45.772;4.804;2023-04-25T07:29:13;99491.09;;;13.73
74321;BMP280;62738;45.772;4.804;2023-04-25T07:31:39;99486.06;;;13.81
74321;BMP280;62738;45.772;4.804;2023-04-25T07:34:06;99486.59;;;13.98
74321;BMP280;62738;45.772;4.804;2023-04-25T07:36:33;99482.06;;;13.93
74321;BMP280;62738;45.772;4.804;2023-04-25T07:39:00;99490.44;;;13.84
74321;BMP280;62738;45.772;4.804;2023-04-25T07:41:26;99488.16;;;14.32
74321;BMP280;62738;45.772;4.804;2023-04-25T07:43:53;99479.44;;;14.38
74321;BMP280;62738;45.772;4.804;2023-04-25T07:46:20;99493.56;;;14.61
74321;BMP280;62738;45.772;4.804;2023-04-25T07:48:47;99497.44;;;14.68
74321;BMP280;62738;45.772;4.804;2023-04-25T07:51:13;99482.31;;;15.15
74321;BMP280;62738;45.772;4.804;2023-04-25T07:53:40;99480.56;;;14.66
74321;BMP280;62738;45.772;4.804;2023-04-25T07:56:07;99481.16;;;14.97
74321;BMP280;62738;45.772;4.804;2023-04-25T07:58:34;99477.22;;;14.79
74321;BMP280;62738;45.772;4.804;2023-04-25T08:01:00;99487.06;;;15.13
74321;BMP280;62738;45.772;4.804;2023-04-25T08:03:27;99492.09;;;15.38
74321;BMP280;62738;45.772;4.804;2023-04-25T08:05:54;99485.84;;;15.27
74321;BMP280;62738;45.772;4.804;2023-04-25T08:08:21;99479.28;;;15.11
74321;BMP280;62738;45.772;4.804;2023-04-25T08:10:47;99492.75;;;15.15
74321;BMP280;62738;45.772;4.804;2023-04-25T08:13:17;99494.31;;;15.06
74321;BMP280;62738;45.772;4.804;2023-04-25T08:15:43;99505.81;;;14.68
74321;BMP280;62738;45.772;4.804;2023-04-25T08:18:10;99502.97;;;14.77
74321;BMP280;62738;45.772;4.804;2023-04-25T08:20:37;99508.69;;;14.58
74321;BMP280;62738;45.772;4.804;2023-04-25T08:23:04;99524.81;;;14.38
74321;BMP280;62738;45.772;4.804;2023-04-25T08:25:30;99523.78;;;14.65
74321;BMP280;62738;45.772;4.804;2023-04-25T08:27:57;99519.22;;;14.81
74321;BMP280;62738;45.772;4.804;2023-04-25T08:30:25;99519.09;;;15.45
74321;BMP280;62738;45.772;4.804;2023-04-25T08:32:53;99523.06;;;15.30
74321;BMP280;62738;45.772;4.804;2023-04-25T08:35:20;99532.19;;;15.30
74321;BMP280;62738;45.772;4.804;2023-04-25T08:37:47;99526.78;;;15.67
74321;BMP280;62738;45.772;4.804;2023-04-25T08:40:15;99530.69;;;15.74
74321;BMP280;62738;45.772;4.804;2023-04-25T08:42:42;99527.91;;;15.18
74321;BMP280;62738;45.772;4.804;2023-04-25T08:45:10;99541.97;;;15.20
74321;BMP280;62738;45.772;4.804;2023-04-25T08:47:38;99564.84;;;15.28
74321;BMP280;62738;45.772;4.804;2023-04-25T08:50:05;99544.22;;;15.33
74321;BMP280;62738;45.772;4.804;2023-04-25T08:52:37;99555.19;;;15.41
74321;BMP280;62738;45.772;4.804;2023-04-25T08:55:06;99548.19;;;14.97
74321;BMP280;62738;45.772;4.804;2023-04-25T08:57:35;99541.53;;;15.23
74321;BMP280;62738;45.772;4.804;2023-04-25T09:00:02;99554.28;;;14.51
74321;BMP280;62738;45.772;4.804;2023-04-25T09:02:30;99543.88;;;15.06
74321;BMP280;62738;45.772;4.804;2023-04-25T09:04:57;99554.06;;;15.34
74321;BMP280;62738;45.772;4.804;2023-04-25T09:07:24;99549.53;;;14.96
74321;BMP280;62738;45.772;4.804;2023-04-25T09:09:52;99544.66;;;14.64
74321;BMP280;62738;45.772;4.804;2023-04-25T09:12:19;99558.78;;;14.99
74321;BMP280;62738;45.772;4.804;2023-04-25T09:15:15;99555.56;;;15.47
74321;BMP280;62738;45.772;4.804;2023-04-25T09:17:55;99565.44;;;15.71
74321;BMP280;62738;45.772;4.804;2023-04-25T09:20:22;99574.69;;;15.73
74321;BMP280;62738;45.772;4.804;2023-04-25T09:22:49;99562.81;;;15.85
74321;BMP280;62738;45.772;4.804;2023-04-25T09:25:15;99579.31;;;15.81
74321;BMP280;62738;45.772;4.804;2023-04-25T09:27:52;99577.00;;;15.32
74321;BMP280;62738;45.772;4.804;2023-04-25T09:30:32;99576.75;;;16.19
74321;BMP280;62738;45.772;4.804;2023-04-25T09:35:43;99584.66;;;15.88
74321;BMP280;62738;45.772;4.804;2023-04-25T09:38:14;99582.00;;;16.25
74321;BMP280;62738;45.772;4.804;2023-04-25T09:40:43;99585.03;;;15.83
74321;BMP280;62738;45.772;4.804;2023-04-25T09:43:24;99572.16;;;16.01
74321;BMP280;62738;45.772;4.804;2023-04-25T09:45:53;99577.88;;;16.38
74321;BMP280;62738;45.772;4.804;2023-04-25T09:48:27;99568.66;;;16.60
74321;BMP280;62738;45.772;4.804;2023-04-25T09:53:31;99584.31;;;15.38
74321;BMP280;62738;45.772;4.804;2023-04-25T09:56:00;99581.53;;;16.05
74321;BMP280;62738;45.772;4.804;2023-04-25T09:58:29;99569.84;;;16.44
74321;BMP280;62738;45.772;4.804;2023-04-25T10:01:00;99583.22;;;16.34
74321;BMP280;62738;45.772;4.804;2023-04-25T10:03:30;99585.66;;;15.37
74321;BMP280;62738;45.772;4.804;2023-04-25T10:06:01;99582.09;;;15.69
74321;BMP280;62738;45.772;4.804;2023-04-25T10:08:32;99585.28;;;16.33
74321;BMP280;62738;45.772;4.804;2023-04-25T10:11:00;99576.31;;;16.11
74321;BMP280;62738;45.772;4.804;2023-04-25T10:13:29;99578.56;;;16.98
74321;BMP280;62738;45.772;4.804;2023-04-25T10:16:00;99585.16;;;16.31
74321;BMP280;62738;45.772;4.804;2023-04-25T10:18:28;99581.53;;;16.05
74321;BMP280;62738;45.772;4.804;2023-04-25T10:21:00;99597.47;;;16.03
74321;BMP280;62738;45.772;4.804;2023-04-25T10:23:28;99591.53;;;15.41
74321;BMP280;62738;45.772;4.804;2023-04-25T10:25:56;99580.63;;;15.68
74321;BMP280;62738;45.772;4.804;2023-04-25T10:28:23;99572.19;;;15.45
74321;BMP280;62738;45.772;4.804;2023-04-25T10:31:00;99566.53;;;15.89
74321;BMP280;62738;45.772;4.804;2023-04-25T10:33:38;99566.88;;;15.60
74321;BMP280;62738;45.772;4.804;2023-04-25T10:36:19;99566.06;;;15.93
74321;BMP280;62738;45.772;4.804;2023-04-25T10:38:51;99575.19;;;15.82
74321;BMP280;62738;45.772;4.804;2023-04-25T10:41:21;99559.50;;;16.00
74321;BMP280;62738;45.772;4.804;2023-04-25T10:43:50;99547.53;;;16.34
74321;BMP280;62738;45.772;4.804;2023-04-25T10:46:28;99548.03;;;16.42
74321;BMP280;62738;45.772;4.804;2023-04-25T10:49:00;99553.16;;;16.34
74321;BMP280;62738;45.772;4.804;2023-04-25T10:51:34;99549.38;;;16.30
74321;BMP280;62738;45.772;4.804;2023-04-25T10:54:22;99543.09;;;16.66
74321;BMP280;62738;45.772;4.804;2023-04-25T10:56:48;99548.47;;;16.62
74321;BMP280;62738;45.772;4.804;2023-04-25T10:59:18;99541.88;;;16.09
74321;BMP280;62738;45.772;4.804;2023-04-25T11:01:47;99549.50;;;16.20
74321;BMP280;62738;45.772;4.804;2023-04-25T11:07:07;99544.78;;;16.96
74321;BMP280;62738;45.772;4.804;2023-04-25T11:09:40;99559.13;;;15.94
74321;BMP280;62738;45.772;4.804;2023-04-25T11:12:08;99548.44;;;16.13
74321;BMP280;62738;45.772;4.804;2023-04-25T11:14:36;99547.38;;;16.92
74321;BMP280;62738;45.772;4.804;2023-04-25T11:17:02;99550.16;;;17.43
74321;BMP280;62738;45.772;4.804;2023-04-25T11:19:29;99545.44;;;17.59
74321;BMP280;62738;45.772;4.804;2023-04-25T11:21:57;99546.69;;;17.83
74321;BMP280;62738;45.772;4.804;2023-04-25T11:24:28;99553.06;;;17.45
74321;BMP280;62738;45.772;4.804;2023-04-25T11:26:56;99542.53;;;16.81
74321;BMP280;62738;45.772;4.804;2023-04-25T11:29:23;99544.69;;;16.57
74321;BMP280;62738;45.772;4.804;2023-04-25T11:31:50;99550.16;;;16.67
74321;BMP280;62738;45.772;4.804;2023-04-25T11:34:18;99540.19;;;16.52
74321;BMP280;62738;45.772;4.804;2023-04-25T11:36:45;99547.03;;;16.86
74321;BMP280;62738;45.772;4.804;2023-04-25T11:39:12;99546.16;;;16.58
74321;BMP280;62738;45.772;4.804;2023-04-25T11:41:42;99529.06;;;16.78
74321;BMP280;62738;45.772;4.804;2023-04-25T11:44:11;99524.59;;;17.37
74321;BMP280;62738;45.772;4.804;2023-04-25T11:46:38;99526.25;;;17.03
74321;BMP280;62738;45.772;4.804;2023-04-25T11:49:05;99519.00;;;16.61
74321;BMP280;62738;45.772;4.804;2023-04-25T11:51:38;99525.19;;;16.71
74321;BMP280;62738;45.772;4.804;2023-04-25T11:54:05;99529.66;;;17.79
74321;BMP280;62738;45.772;4.804;2023-04-25T11:56:32;99523.56;;;17.44
74321;BMP280;62738;45.772;4.804;2023-04-25T11:59:01;99529.91;;;17.31
74321;BMP280;62738;45.772;4.804;2023-04-25T12:01:36;99521.34;;;17.95
74321;BMP280;62738;45.772;4.804;2023-04-25T12:04:23;99531.94;;;17.96
74321;BMP280;62738;45.772;4.804;2023-04-25T12:06:54;99510.41;;;18.15
74321;BMP280;62738;45.772;4.804;2023-04-25T12:09:32;99506.81;;;17.98
74321;BMP280;62738;45.772;4.804;2023-04-25T12:12:00;99514.22;;;18.35
74321;BMP280;62738;45.772;4.804;2023-04-25T12:14:32;99521.34;;;17.68
74321;BMP280;62738;45.772;4.804;2023-04-25T12:17:01;99524.88;;;17.82
74321;BMP280;62738;45.772;4.804;2023-04-25T12:19:33;99522.38;;;17.74
74321;BMP280;62738;45.772;4.804;2023-04-25T12:22:01;99512.47;;;18.00
74321;BMP280;62738;45.772;4.804;2023-04-25T12:24:27;99522.59;;;17.92
74321;BMP280;62738;45.772;4.804;2023-04-25T12:27:02;99512.59;;;18.02
74321;BMP280;62738;45.772;4.804;2023-04-25T12:29:31;99527.25;;;18.01
74321;BMP280;62738;45.772;4.804;2023-04-25T12:32:14;99522.56;;;18.05
74321;BMP280;62738;45.772;4.804;2023-04-25T12:34:40;99532.03;;;18.12
74321;BMP280;62738;45.772;4.804;2023-04-25T12:37:07;99523.63;;;18.26
74321;BMP280;62738;45.772;4.804;2023-04-25T12:39:34;99531.00;;;18.19
74321;BMP280;62738;45.772;4.804;2023-04-25T12:42:01;99541.50;;;18.19
74321;BMP280;62738;45.772;4.804;2023-04-25T12:44:28;99531.63;;;18.18
74321;BMP280;62738;45.772;4.804;2023-04-25T12:46:55;99528.72;;;17.88
74321;BMP280;62738;45.772;4.804;2023-04-25T12:49:22;99523.47;;;18.37
74321;BMP280;62738;45.772;4.804;2023-04-25T12:51:48;99517.59;;;17.63
74321;BMP280;62738;45.772;4.804;2023-04-25T12:54:15;99516.75;;;18.01
74321;BMP280;62738;45.772;4.804;2023-04-25T12:56:42;99528.91;;;18.20
74321;BMP280;62738;45.772;4.804;2023-04-25T12:59:09;99527.88;;;17.99
74321;BMP280;62738;45.772;4.804;2023-04-25T13:01:35;99527.34;;;17.62
74321;BMP280;62738;45.772;4.804;2023-04-25T13:04:02;99531.59;;;18.04
74321;BMP280;62738;45.772;4.804;2023-04-25T13:06:29;99521.41;;;18.24
74321;BMP280;62738;45.772;4.804;2023-04-25T13:08:57;99521.31;;;18.65
74321;BMP280;62738;45.772;4.804;2023-04-25T13:11:24;99516.53;;;18.11
74321;BMP280;62738;45.772;4.804;2023-04-25T13:13:50;99517.31;;;18.55
74321;BMP280;62738;45.772;4.804;2023-04-25T13:16:18;99518.53;;;17.95
74321;BMP280;62738;45.772;4.804;2023-04-25T13:18:47;99509.25;;;18.06
74321;BMP280;62738;45.772;4.804;2023-04-25T13:21:14;99522.75;;;18.37
74321;BMP280;62738;45.772;4.804;2023-04-25T13:23:41;99509.94;;;18.34
74321;BMP280;62738;45.772;4.804;2023-04-25T13:26:09;99510.72;;;18.07
74321;BMP280;62738;45.772;4.804;2023-04-25T13:28:36;99507.78;;;18.19
74321;BMP280;62738;45.772;4.804;2023-04-25T13:31:03;99500.41;;;18.68
74321;BMP280;62738;45.772;4.804;2023-04-25T13:33:29;99503.91;;;19.76
74321;BMP280;62738;45.772;4.804;2023-04-25T13:35:56;99502.97;;;19.87
74321;BMP280;62738;45.772;4.804;2023-04-25T13:38:25;99497.84;;;20.00
74321;BMP280;62738;45.772;4.804;2023-04-25T13:40:52;99497.22;;;19.68
74321;BMP280;62738;45.772;4.804;2023-04-25T13:43:20;99499.91;;;19.03
74321;BMP280;62738;45.772;4.804;2023-04-25T13:45:48;99496.28;;;18.85
74321;BMP280;62738;45.772;4.804;2023-04-25T13:48:15;99501.41;;;18.75
74321;BMP280;62738;45.772;4.804;2023-04-25T13:50:42;99506.88;;;18.86
74321;BMP280;62738;45.772;4.804;2023-04-25T13:53:08;99509.44;;;18.96
74321;BMP280;62738;45.772;4.804;2023-04-25T13:55:35;99503.50;;;18.45
74321;BMP280;62738;45.772;4.804;2023-04-25T13:58:03;99507.78;;;18.19
74321;BMP280;62738;45.772;4.804;2023-04-25T14:00:38;99513.41;;;18.05
74321;BMP280;62738;45.772;4.804;2023-04-25T14:03:06;99503.34;;;18.86
74321;BMP280;62738;45.772;4.804;2023-04-25T14:05:36;99491.78;;;18.64
74321;BMP280;62738;45.772;4.804;2023-04-25T14:08:07;99502.56;;;19.15
74321;BMP280;62738;45.772;4.804;2023-04-25T14:10:35;99490.66;;;19.63
74321;BMP280;62738;45.772;4.804;2023-04-25T14:13:02;99494.66;;;19.58
74321;BMP280;62738;45.772;4.804;2023-04-25T14:15:31;99498.56;;;19.67
74321;BMP280;62738;45.772;4.804;2023-04-25T14:17:59;99490.75;;;19.65
74321;BMP280;62738;45.772;4.804;2023-04-25T14:20:26;99489.97;;;19.31
74321;BMP280;62738;45.772;4.804;2023-04-25T14:22:52;99495.03;;;19.04